sensor_id;sensor_type;location;lat;lon;timestamp;pressure;altitude;pressure_sealevel;temperature;humidity
37904;BME280;23738;50.422;18.758;2024-01-11T00:01:11;99731.00;;;-10.02;74.15
37904;BME280;23738;50.422;18.758;2024-01-11T00:03:40;99731.04;;;-10.10;74.01
37904;BME280;23738;50.422;18.758;2024-01-11T00:06:18;99731.83;;;-10.19;74.06
37904;BME280;23738;50.422;18.758;2024-01-11T00:08:48;99729.63;;;-10.26;74.09
37904;BME280;23738;50.422;18.758;2024-01-11T00:11:17;99721.42;;;-10.37;73.74
37904;BME280;23738;50.422;18.758;2024-01-11T00:13:47;99720.57;;;-10.44;73.58
37904;BME280;23738;50.422;18.758;2024-01-11T00:16:16;99720.45;;;-10.46;73.44
37904;BME280;23738;50.422;18.758;2024-01-11T00:18:46;99721.17;;;-10.47;73.51
37904;BME280;23738;50.422;18.758;2024-01-11T00:21:15;99725.64;;;-10.49;73.41
37904;BME280;23738;50.422;18.758;2024-01-11T00:23:45;99722.52;;;-10.46;73.57
37904;BME280;23738;50.422;18.758;2024-01-11T00:26:14;99710.14;;;-10.42;73.52
37904;BME280;23738;50.422;18.758;2024-01-11T00:28:44;99702.39;;;-10.38;73.76
37904;BME280;23738;50.422;18.758;2024-01-11T00:31:14;99699.33;;;-10.32;74.06
37904;BME280;23738;50.422;18.758;2024-01-11T00:33:43;99695.33;;;-10.18;74.03
37904;BME280;23738;50.422;18.758;2024-01-11T00:36:18;99685.90;;;-10.04;74.14
37904;BME280;23738;50.422;18.758;2024-01-11T00:38:49;99681.69;;;-9.94;74.13
37904;BME280;23738;50.422;18.758;2024-01-11T00:41:18;99680.52;;;-9.95;74.01
37904;BME280;23738;50.422;18.758;2024-01-11T00:43:47;99672.61;;;-9.99;74.16
37904;BME280;23738;50.422;18.758;2024-01-11T00:46:17;99667.44;;;-10.03;74.22
37904;BME280;23738;50.422;18.758;2024-01-11T00:48:47;99668.09;;;-10.13;73.99
37904;BME280;23738;50.422;18.758;2024-01-11T00:51:16;99669.31;;;-10.25;73.70
37904;BME280;23738;50.422;18.758;2024-01-11T00:53:46;99674.29;;;-10.39;73.96
37904;BME280;23738;50.422;18.758;2024-01-11T00:56:19;99676.80;;;-10.50;73.94
37904;BME280;23738;50.422;18.758;2024-01-11T00:58:48;99673.69;;;-10.60;73.45
37904;BME280;23738;50.422;18.758;2024-01-11T01:01:19;99671.23;;;-10.65;73.97
37904;BME280;23738;50.422;18.758;2024-01-11T01:03:49;99671.13;;;-10.61;73.90
37904;BME280;23738;50.422;18.758;2024-01-11T01:06:18;99672.08;;;-10.52;74.08
37904;BME280;23738;50.422;18.758;2024-01-11T01:08:48;99677.10;;;-10.42;73.69
37904;BME280;23738;50.422;18.758;2024-01-11T01:11:17;99678.74;;;-10.34;74.12
37904;BME280;23738;50.422;18.758;2024-01-11T01:13:47;99679.53;;;-10.25;73.87
37904;BME280;23738;50.422;18.758;2024-01-11T01:16:16;99676.90;;;-10.17;74.21
37904;BME280;23738;50.422;18.758;2024-01-11T01:18:46;99678.75;;;-10.11;73.98
37904;BME280;23738;50.422;18.758;2024-01-11T01:21:15;99679.92;;;-10.04;74.31
37904;BME280;23738;50.422;18.758;2024-01-11T01:23:45;99670.14;;;-10.02;74.19
37904;BME280;23738;50.422;18.758;2024-01-11T01:26:15;99667.95;;;-10.02;73.95
37904;BME280;23738;50.422;18.758;2024-01-11T01:28:44;99672.73;;;-10.03;74.20
37904;BME280;23738;50.422;18.758;2024-01-11T01:31:14;99665.58;;;-10.09;74.03
37904;BME280;23738;50.422;18.758;2024-01-11T01:33:43;99668.40;;;-10.17;74.14
37904;BME280;23738;50.422;18.758;2024-01-11T01:36:13;99670.77;;;-10.23;74.39
37904;BME280;23738;50.422;18.758;2024-01-11T01:38:42;99673.10;;;-10.32;74.14
37904;BME280;23738;50.422;18.758;2024-01-11T01:41:12;99673.09;;;-10.44;73.58
37904;BME280;23738;50.422;18.758;2024-01-11T01:43:41;99669.78;;;-10.55;73.89
37904;BME280;23738;50.422;18.758;2024-01-11T01:46:11;99662.11;;;-10.61;73.75
37904;BME280;23738;50.422;18.758;2024-01-11T01:48:45;99655.42;;;-10.65;73.63
37904;BME280;23738;50.422;18.758;2024-01-11T01:51:15;99654.01;;;-10.63;73.85
37904;BME280;23738;50.422;18.758;2024-01-11T01:53:45;99642.41;;;-10.63;73.51
37904;BME280;23738;50.422;18.758;2024-01-11T01:56:15;99644.23;;;-10.54;74.09
37904;BME280;23738;50.422;18.758;2024-01-11T01:58:46;99642.55;;;-10.49;73.75
37904;BME280;23738;50.422;18.758;2024-01-11T02:01:16;99636.33;;;-10.46;73.90
37904;BME280;23738;50.422;18.758;2024-01-11T02:03:48;99634.77;;;-10.39;73.69
37904;BME280;23738;50.422;18.758;2024-01-11T02:06:20;99626.08;;;-10.32;74.07
37904;BME280;23738;50.422;18.758;2024-01-11T02:08:53;99625.21;;;-10.26;74.35
37904;BME280;23738;50.422;18.758;2024-01-11T02:11:24;99627.11;;;-10.21;74.35
37904;BME280;23738;50.422;18.758;2024-01-11T02:13:54;99631.34;;;-10.20;74.37
37904;BME280;23738;50.422;18.758;2024-01-11T02:16:25;99630.48;;;-10.25;74.17
37904;BME280;23738;50.422;18.758;2024-01-11T02:18:55;99632.59;;;-10.34;73.72
37904;BME280;23738;50.422;18.758;2024-01-11T02:21:25;99628.55;;;-10.41;73.86
37904;BME280;23738;50.422;18.758;2024-01-11T02:24:03;99624.63;;;-10.47;73.74
37904;BME280;23738;50.422;18.758;2024-01-11T02:26:34;99622.80;;;-10.55;73.93
37904;BME280;23738;50.422;18.758;2024-01-11T02:29:03;99635.85;;;-10.65;73.76
37904;BME280;23738;50.422;18.758;2024-01-11T02:31:33;99642.38;;;-10.74;73.61
37904;BME280;23738;50.422;18.758;2024-01-11T02:34:03;99642.34;;;-10.78;73.61
37904;BME280;23738;50.422;18.758;2024-01-11T02:36:33;99637.60;;;-10.80;73.95
37904;BME280;23738;50.422;18.758;2024-01-11T02:39:02;99627.91;;;-10.80;73.67
37904;BME280;23738;50.422;18.758;2024-01-11T02:41:33;99615.52;;;-10.75;73.83
37904;BME280;23738;50.422;18.758;2024-01-11T02:44:04;99620.25;;;-10.62;74.24
37904;BME280;23738;50.422;18.758;2024-01-11T02:46:34;99627.98;;;-10.52;73.77
37904;BME280;23738;50.422;18.758;2024-01-11T02:49:04;99631.94;;;-10.47;73.74
37904;BME280;23738;50.422;18.758;2024-01-11T02:51:34;99633.58;;;-10.44;74.11
37904;BME280;23738;50.422;18.758;2024-01-11T02:54:05;99637.61;;;-10.37;74.19
37904;BME280;23738;50.422;18.758;2024-01-11T02:56:34;99635.46;;;-10.33;74.04
37904;BME280;23738;50.422;18.758;2024-01-11T02:59:04;99631.55;;;-10.33;73.74
37904;BME280;23738;50.422;18.758;2024-01-11T03:01:33;99628.66;;;-10.33;74.02
37904;BME280;23738;50.422;18.758;2024-01-11T03:04:03;99616.35;;;-10.31;74.01
37904;BME280;23738;50.422;18.758;2024-01-11T03:06:33;99612.89;;;-10.30;74.43
37904;BME280;23738;50.422;18.758;2024-01-11T03:09:02;99608.77;;;-10.35;74.07
37904;BME280;23738;50.422;18.758;2024-01-11T03:11:32;99608.83;;;-10.43;74.36
37904;BME280;23738;50.422;18.758;2024-01-11T03:14:04;99610.80;;;-10.52;73.89
37904;BME280;23738;50.422;18.758;2024-01-11T03:16:33;99606.36;;;-10.64;73.74
37904;BME280;23738;50.422;18.758;2024-01-11T03:19:03;99607.77;;;-10.72;73.59
37904;BME280;23738;50.422;18.758;2024-01-11T03:21:32;99599.34;;;-10.81;73.81
37904;BME280;23738;50.422;18.758;2024-01-11T03:24:02;99596.04;;;-10.85;73.93
37904;BME280;23738;50.422;18.758;2024-01-11T03:26:34;99582.69;;;-10.89;73.55
37904;BME280;23738;50.422;18.758;2024-01-11T03:29:03;99593.29;;;-10.85;73.85
37904;BME280;23738;50.422;18.758;2024-01-11T03:31:33;99596.17;;;-10.84;73.40
37904;BME280;23738;50.422;18.758;2024-01-11T03:34:02;99591.52;;;-10.82;73.75
37904;BME280;23738;50.422;18.758;2024-01-11T03:36:32;99586.64;;;-10.77;73.81
37904;BME280;23738;50.422;18.758;2024-01-11T03:39:02;99590.40;;;-10.77;73.44
37904;BME280;23738;50.422;18.758;2024-01-11T03:41:32;99585.95;;;-10.77;73.68
37904;BME280;23738;50.422;18.758;2024-01-11T03:44:03;99586.59;;;-10.75;73.96
37904;BME280;23738;50.422;18.758;2024-01-11T03:46:33;99588.03;;;-10.72;73.91
37904;BME280;23738;50.422;18.758;2024-01-11T03:49:02;99594.44;;;-10.64;73.86
37904;BME280;23738;50.422;18.758;2024-01-11T03:51:32;99595.30;;;-10.58;73.63
37904;BME280;23738;50.422;18.758;2024-01-11T03:54:02;99598.41;;;-10.60;74.07
37904;BME280;23738;50.422;18.758;2024-01-11T03:56:31;99585.35;;;-10.68;73.60
37904;BME280;23738;50.422;18.758;2024-01-11T03:59:01;99581.38;;;-10.78;73.54
37904;BME280;23738;50.422;18.758;2024-01-11T04:01:30;99583.34;;;-10.88;73.45
37904;BME280;23738;50.422;18.758;2024-01-11T04:04:00;99581.88;;;-10.97;73.53
37904;BME280;23738;50.422;18.758;2024-01-11T04:06:29;99564.94;;;-11.06;73.50
37904;BME280;23738;50.422;18.758;2024-01-11T04:08:59;99569.65;;;-11.10;73.54
37904;BME280;23738;50.422;18.758;2024-01-11T04:11:30;99578.31;;;-11.16;73.76
37904;BME280;23738;50.422;18.758;2024-01-11T04:13:59;99579.29;;;-11.21;73.29
37904;BME280;23738;50.422;18.758;2024-01-11T04:16:29;99584.39;;;-11.20;73.29
37904;BME280;23738;50.422;18.758;2024-01-11T04:19:00;99590.67;;;-11.20;73.63
37904;BME280;23738;50.422;18.758;2024-01-11T04:21:32;99592.35;;;-11.19;73.54
37904;BME280;23738;50.422;18.758;2024-01-11T04:24:01;99588.57;;;-11.18;73.32
37904;BME280;23738;50.422;18.758;2024-01-11T04:26:31;99587.36;;;-11.11;73.32
37904;BME280;23738;50.422;18.758;2024-01-11T04:29:00;99590.45;;;-11.05;73.89
37904;BME280;23738;50.422;18.758;2024-01-11T04:31:30;99589.63;;;-11.00;73.96
37904;BME280;23738;50.422;18.758;2024-01-11T04:34:00;99583.65;;;-10.93;74.42
37904;BME280;23738;50.422;18.758;2024-01-11T04:36:29;99579.20;;;-10.86;74.68
37904;BME280;23738;50.422;18.758;2024-01-11T04:38:59;99577.94;;;-10.83;74.05
37904;BME280;23738;50.422;18.758;2024-01-11T04:41:29;99573.66;;;-10.82;74.57
37904;BME280;23738;50.422;18.758;2024-01-11T04:43:58;99578.65;;;-10.77;74.72
37904;BME280;23738;50.422;18.758;2024-01-11T04:46:28;99578.76;;;-10.76;74.48
37904;BME280;23738;50.422;18.758;2024-01-11T04:48:57;99566.02;;;-10.71;75.08
37904;BME280;23738;50.422;18.758;2024-01-11T04:51:27;99567.14;;;-10.62;74.67
37904;BME280;23738;50.422;18.758;2024-01-11T04:53:57;99561.01;;;-10.50;75.31
37904;BME280;23738;50.422;18.758;2024-01-11T04:56:26;99566.02;;;-10.40;75.00
37904;BME280;23738;50.422;18.758;2024-01-11T04:58:57;99578.48;;;-10.36;75.32
37904;BME280;23738;50.422;18.758;2024-01-11T05:01:27;99567.98;;;-10.50;74.68
37904;BME280;23738;50.422;18.758;2024-01-11T05:03:56;99554.80;;;-10.60;74.53
37904;BME280;23738;50.422;18.758;2024-01-11T05:06:26;99552.96;;;-10.66;74.65
37904;BME280;23738;50.422;18.758;2024-01-11T05:08:55;99540.55;;;-10.73;75.20
37904;BME280;23738;50.422;18.758;2024-01-11T05:11:26;99535.45;;;-10.79;74.97
37904;BME280;23738;50.422;18.758;2024-01-11T05:13:55;99541.11;;;-10.87;74.55
37904;BME280;23738;50.422;18.758;2024-01-11T05:16:26;99545.55;;;-10.94;74.69
37904;BME280;23738;50.422;18.758;2024-01-11T05:18:57;99537.27;;;-10.95;74.79
37904;BME280;23738;50.422;18.758;2024-01-11T05:21:27;99542.45;;;-10.92;75.10
37904;BME280;23738;50.422;18.758;2024-01-11T05:23:56;99555.48;;;-10.90;74.68
37904;BME280;23738;50.422;18.758;2024-01-11T05:26:26;99564.64;;;-10.83;75.39
37904;BME280;23738;50.422;18.758;2024-01-11T05:28:56;99558.65;;;-10.80;74.88
37904;BME280;23738;50.422;18.758;2024-01-11T05:31:25;99551.98;;;-10.79;75.24
37904;BME280;23738;50.422;18.758;2024-01-11T05:33:56;99537.91;;;-10.75;74.93
37904;BME280;23738;50.422;18.758;2024-01-11T05:36:25;99531.05;;;-10.67;75.43
37904;BME280;23738;50.422;18.758;2024-01-11T05:38:55;99522.23;;;-10.58;75.40
37904;BME280;23738;50.422;18.758;2024-01-11T05:41:25;99519.48;;;-10.50;75.23
37904;BME280;23738;50.422;18.758;2024-01-11T05:43:54;99524.52;;;-10.42;75.05
37904;BME280;23738;50.422;18.758;2024-01-11T05:46:24;99523.11;;;-10.35;75.69
37904;BME280;23738;50.422;18.758;2024-01-11T05:48:53;99509.14;;;-10.35;75.40
37904;BME280;23738;50.422;18.758;2024-01-11T05:51:23;99515.02;;;-10.27;75.79
37904;BME280;23738;50.422;18.758;2024-01-11T05:53:52;99511.74;;;-10.31;75.03
37904;BME280;23738;50.422;18.758;2024-01-11T05:56:22;99510.89;;;-10.37;75.66
37904;BME280;23738;50.422;18.758;2024-01-11T05:58:51;99522.84;;;-10.43;75.68
37904;BME280;23738;50.422;18.758;2024-01-11T06:01:21;99521.64;;;-10.48;75.46
37904;BME280;23738;50.422;18.758;2024-01-11T06:03:51;99521.41;;;-10.53;75.49
37904;BME280;23738;50.422;18.758;2024-01-11T06:06:20;99517.11;;;-10.57;75.46
37904;BME280;23738;50.422;18.758;2024-01-11T06:08:50;99521.46;;;-10.60;75.14
37904;BME280;23738;50.422;18.758;2024-01-11T06:11:19;99527.43;;;-10.60;75.52
37904;BME280;23738;50.422;18.758;2024-01-11T06:13:49;99523.69;;;-10.60;75.53
37904;BME280;23738;50.422;18.758;2024-01-11T06:16:18;99519.80;;;-10.55;75.48
37904;BME280;23738;50.422;18.758;2024-01-11T06:18:48;99513.54;;;-10.51;75.34
37904;BME280;23738;50.422;18.758;2024-01-11T06:21:17;99512.84;;;-10.44;75.63
37904;BME280;23738;50.422;18.758;2024-01-11T06:23:47;99508.88;;;-10.37;75.73
37904;BME280;23738;50.422;18.758;2024-01-11T06:26:17;99500.89;;;-10.32;75.68
37904;BME280;23738;50.422;18.758;2024-01-11T06:28:46;99487.19;;;-10.24;75.49
37904;BME280;23738;50.422;18.758;2024-01-11T06:31:16;99471.59;;;-10.21;75.65
37904;BME280;23738;50.422;18.758;2024-01-11T06:33:46;99466.77;;;-10.20;75.39
37904;BME280;23738;50.422;18.758;2024-01-11T06:36:15;99472.41;;;-10.16;75.91
37904;BME280;23738;50.422;18.758;2024-01-11T06:38:45;99470.61;;;-10.23;75.18
37904;BME280;23738;50.422;18.758;2024-01-11T06:41:15;99464.60;;;-10.32;75.21
37904;BME280;23738;50.422;18.758;2024-01-11T06:43:45;99450.39;;;-10.40;75.45
37904;BME280;23738;50.422;18.758;2024-01-11T06:46:19;99451.01;;;-10.44;75.35
37904;BME280;23738;50.422;18.758;2024-01-11T06:48:48;99447.42;;;-10.50;75.47
37904;BME280;23738;50.422;18.758;2024-01-11T06:51:22;99455.19;;;-10.53;75.67
37904;BME280;23738;50.422;18.758;2024-01-11T06:53:52;99461.40;;;-10.55;75.59
37904;BME280;23738;50.422;18.758;2024-01-11T06:56:21;99458.73;;;-10.52;75.38
37904;BME280;23738;50.422;18.758;2024-01-11T06:58:51;99459.09;;;-10.46;75.31
37904;BME280;23738;50.422;18.758;2024-01-11T07:01:21;99443.44;;;-10.42;75.47
37904;BME280;23738;50.422;18.758;2024-01-11T07:03:50;99435.94;;;-10.30;76.15
37904;BME280;23738;50.422;18.758;2024-01-11T07:06:20;99431.75;;;-10.12;75.87
37904;BME280;23738;50.422;18.758;2024-01-11T07:08:49;99426.85;;;-10.03;76.17
37904;BME280;23738;50.422;18.758;2024-01-11T07:11:19;99422.21;;;-10.02;75.99
37904;BME280;23738;50.422;18.758;2024-01-11T07:13:48;99424.73;;;-9.96;76.05
37904;BME280;23738;50.422;18.758;2024-01-11T07:16:18;99421.26;;;-9.88;76.15
37904;BME280;23738;50.422;18.758;2024-01-11T07:18:48;99431.55;;;-9.85;76.42
37904;BME280;23738;50.422;18.758;2024-01-11T07:21:23;99441.61;;;-9.81;76.08
37904;BME280;23738;50.422;18.758;2024-01-11T07:23:58;99442.39;;;-9.68;76.60
37904;BME280;23738;50.422;18.758;2024-01-11T07:26:28;99453.05;;;-9.51;76.98
37904;BME280;23738;50.422;18.758;2024-01-11T07:28:58;99467.34;;;-9.35;77.04
37904;BME280;23738;50.422;18.758;2024-01-11T07:31:27;99464.77;;;-9.20;77.27
37904;BME280;23738;50.422;18.758;2024-01-11T07:33:57;99452.49;;;-9.06;77.37
37904;BME280;23738;50.422;18.758;2024-01-11T07:36:26;99441.97;;;-8.99;77.72
37904;BME280;23738;50.422;18.758;2024-01-11T07:38:57;99438.09;;;-8.95;77.52
37904;BME280;23738;50.422;18.758;2024-01-11T07:41:26;99431.20;;;-8.94;77.49
37904;BME280;23738;50.422;18.758;2024-01-11T07:43:56;99427.50;;;-8.91;77.68
37904;BME280;23738;50.422;18.758;2024-01-11T07:46:27;99413.02;;;-8.86;77.65
37904;BME280;23738;50.422;18.758;2024-01-11T07:48:57;99406.27;;;-8.79;77.82
37904;BME280;23738;50.422;18.758;2024-01-11T07:51:28;99402.27;;;-8.69;77.69
37904;BME280;23738;50.422;18.758;2024-01-11T07:53:57;99395.73;;;-8.55;77.58
37904;BME280;23738;50.422;18.758;2024-01-11T07:56:27;99382.13;;;-8.35;77.96
37904;BME280;23738;50.422;18.758;2024-01-11T07:58:56;99378.17;;;-8.18;78.06
37904;BME280;23738;50.422;18.758;2024-01-11T08:01:26;99368.06;;;-8.04;78.17
37904;BME280;23738;50.422;18.758;2024-01-11T08:03:55;99374.13;;;-7.95;78.09
37904;BME280;23738;50.422;18.758;2024-01-11T08:06:25;99374.83;;;-7.87;78.28
37904;BME280;23738;50.422;18.758;2024-01-11T08:08:55;99374.17;;;-7.80;78.19
37904;BME280;23738;50.422;18.758;2024-01-11T08:11:24;99374.45;;;-7.74;78.36
37904;BME280;23738;50.422;18.758;2024-01-11T08:13:53;99369.52;;;-7.67;78.48
37904;BME280;23738;50.422;18.758;2024-01-11T08:16:23;99364.53;;;-7.62;78.51
37904;BME280;23738;50.422;18.758;2024-01-11T08:18:53;99354.02;;;-7.56;78.56
37904;BME280;23738;50.422;18.758;2024-01-11T08:21:22;99354.91;;;-7.53;78.54
37904;BME280;23738;50.422;18.758;2024-01-11T08:23:52;99352.23;;;-7.50;78.66
37904;BME280;23738;50.422;18.758;2024-01-11T08:26:23;99355.45;;;-7.50;78.52
37904;BME280;23738;50.422;18.758;2024-01-11T08:28:52;99348.66;;;-7.51;78.64
37904;BME280;23738;50.422;18.758;2024-01-11T08:31:22;99348.90;;;-7.53;78.67
37904;BME280;23738;50.422;18.758;2024-01-11T08:33:51;99353.43;;;-7.54;78.80
37904;BME280;23738;50.422;18.758;2024-01-11T08:36:21;99363.05;;;-7.56;78.66
37904;BME280;23738;50.422;18.758;2024-01-11T08:38:50;99367.29;;;-7.55;78.51
37904;BME280;23738;50.422;18.758;2024-01-11T08:41:20;99376.42;;;-7.52;78.29
37904;BME280;23738;50.422;18.758;2024-01-11T08:43:49;99380.14;;;-7.43;78.64
37904;BME280;23738;50.422;18.758;2024-01-11T08:46:26;99381.84;;;-7.31;78.62
37904;BME280;23738;50.422;18.758;2024-01-11T08:48:54;99382.38;;;-7.16;78.87
37904;BME280;23738;50.422;18.758;2024-01-11T08:51:25;99378.02;;;-6.96;79.33
37904;BME280;23738;50.422;18.758;2024-01-11T08:53:54;99373.22;;;-6.70;79.54
37904;BME280;23738;50.422;18.758;2024-01-11T08:56:24;99372.72;;;-6.52;79.45
37904;BME280;23738;50.422;18.758;2024-01-11T08:58:53;99375.89;;;-6.40;79.37
37904;BME280;23738;50.422;18.758;2024-01-11T09:01:23;99383.10;;;-6.29;79.65
37904;BME280;23738;50.422;18.758;2024-01-11T09:03:53;99381.80;;;-6.20;79.78
37904;BME280;23738;50.422;18.758;2024-01-11T09:06:22;99381.29;;;-6.09;79.76
37904;BME280;23738;50.422;18.758;2024-01-11T09:08:52;99389.27;;;-6.07;79.76
37904;BME280;23738;50.422;18.758;2024-01-11T09:11:21;99395.44;;;-6.07;79.68
37904;BME280;23738;50.422;18.758;2024-01-11T09:13:51;99394.98;;;-6.08;79.65
37904;BME280;23738;50.422;18.758;2024-01-11T09:16:20;99378.40;;;-6.06;79.77
37904;BME280;23738;50.422;18.758;2024-01-11T09:18:50;99380.02;;;-6.01;79.77
37904;BME280;23738;50.422;18.758;2024-01-11T09:21:20;99384.18;;;-5.95;79.74
37904;BME280;23738;50.422;18.758;2024-01-11T09:23:50;99381.35;;;-5.90;79.86
37904;BME280;23738;50.422;18.758;2024-01-11T09:26:19;99379.82;;;-5.87;79.90
37904;BME280;23738;50.422;18.758;2024-01-11T09:28:50;99381.83;;;-5.83;79.92
37904;BME280;23738;50.422;18.758;2024-01-11T09:31:20;99383.58;;;-5.81;79.87
37904;BME280;23738;50.422;18.758;2024-01-11T09:33:49;99378.70;;;-5.79;80.00
37904;BME280;23738;50.422;18.758;2024-01-11T09:36:19;99369.80;;;-5.73;79.98
37904;BME280;23738;50.422;18.758;2024-01-11T09:38:48;99370.55;;;-5.67;79.95
37904;BME280;23738;50.422;18.758;2024-01-11T09:41:18;99366.69;;;-5.62;80.04
37904;BME280;23738;50.422;18.758;2024-01-11T09:43:49;99364.90;;;-5.58;80.15
37904;BME280;23738;50.422;18.758;2024-01-11T09:46:23;99361.92;;;-5.53;79.99
37904;BME280;23738;50.422;18.758;2024-01-11T09:48:55;99360.77;;;-5.51;79.97
37904;BME280;23738;50.422;18.758;2024-01-11T09:51:27;99354.55;;;-5.50;79.83
37904;BME280;23738;50.422;18.758;2024-01-11T09:54:00;99346.52;;;-5.47;79.85
37904;BME280;23738;50.422;18.758;2024-01-11T09:56:29;99349.20;;;-5.43;80.03
37904;BME280;23738;50.422;18.758;2024-01-11T09:58:59;99340.66;;;-5.37;79.87
37904;BME280;23738;50.422;18.758;2024-01-11T10:01:29;99339.35;;;-5.25;80.11
37904;BME280;23738;50.422;18.758;2024-01-11T10:03:59;99332.89;;;-5.23;79.76
37904;BME280;23738;50.422;18.758;2024-01-11T10:06:28;99330.91;;;-5.21;79.98
37904;BME280;23738;50.422;18.758;2024-01-11T10:09:01;99331.14;;;-5.19;79.86
37904;BME280;23738;50.422;18.758;2024-01-11T10:11:31;99329.55;;;-5.18;79.80
37904;BME280;23738;50.422;18.758;2024-01-11T10:14:02;99319.92;;;-5.18;79.73
37904;BME280;23738;50.422;18.758;2024-01-11T10:16:33;99318.39;;;-5.19;79.65
37904;BME280;23738;50.422;18.758;2024-01-11T10:19:03;99316.35;;;-5.19;79.58
37904;BME280;23738;50.422;18.758;2024-01-11T10:21:32;99311.68;;;-5.18;79.58
37904;BME280;23738;50.422;18.758;2024-01-11T10:24:03;99310.80;;;-5.15;79.71
37904;BME280;23738;50.422;18.758;2024-01-11T10:26:34;99306.90;;;-5.09;79.85
37904;BME280;23738;50.422;18.758;2024-01-11T10:29:05;99302.77;;;-5.00;79.88
37904;BME280;23738;50.422;18.758;2024-01-11T10:31:38;99297.28;;;-4.88;80.11
37904;BME280;23738;50.422;18.758;2024-01-11T10:34:08;99293.77;;;-4.77;79.96
37904;BME280;23738;50.422;18.758;2024-01-11T10:36:37;99297.27;;;-4.66;80.12
37904;BME280;23738;50.422;18.758;2024-01-11T10:39:10;99292.89;;;-4.55;80.07
37904;BME280;23738;50.422;18.758;2024-01-11T10:41:40;99291.18;;;-4.46;80.07
37904;BME280;23738;50.422;18.758;2024-01-11T10:44:18;99286.72;;;-4.37;80.23
37904;BME280;23738;50.422;18.758;2024-01-11T10:46:49;99278.07;;;-4.28;80.22
37904;BME280;23738;50.422;18.758;2024-01-11T10:49:20;99269.82;;;-4.25;80.11
37904;BME280;23738;50.422;18.758;2024-01-11T10:51:59;99271.52;;;-4.18;80.06
37904;BME280;23738;50.422;18.758;2024-01-11T10:54:31;99268.48;;;-4.14;80.06
37904;BME280;23738;50.422;18.758;2024-01-11T10:57:02;99266.37;;;-4.10;80.17
37904;BME280;23738;50.422;18.758;2024-01-11T10:59:35;99266.05;;;-4.05;80.33
37904;BME280;23738;50.422;18.758;2024-01-11T11:02:07;99263.05;;;-4.00;80.16
37904;BME280;23738;50.422;18.758;2024-01-11T11:04:41;99257.48;;;-3.97;80.15
37904;BME280;23738;50.422;18.758;2024-01-11T11:07:11;99257.34;;;-3.88;80.30
37904;BME280;23738;50.422;18.758;2024-01-11T11:09:42;99251.11;;;-3.76;80.41
37904;BME280;23738;50.422;18.758;2024-01-11T11:12:13;99248.11;;;-3.64;80.34
37904;BME280;23738;50.422;18.758;2024-01-11T11:14:44;99244.79;;;-3.55;80.35
37904;BME280;23738;50.422;18.758;2024-01-11T11:17:17;99240.29;;;-3.46;80.17
37904;BME280;23738;50.422;18.758;2024-01-11T11:19:47;99239.05;;;-3.37;80.27
37904;BME280;23738;50.422;18.758;2024-01-11T11:22:17;99235.04;;;-3.28;80.48
37904;BME280;23738;50.422;18.758;2024-01-11T11:24:47;99234.14;;;-3.19;80.50
37904;BME280;23738;50.422;18.758;2024-01-11T11:27:17;99229.42;;;-3.13;80.42
37904;BME280;23738;50.422;18.758;2024-01-11T11:29:50;99230.71;;;-3.05;80.29
37904;BME280;23738;50.422;18.758;2024-01-11T11:32:36;99229.23;;;-3.01;80.20
37904;BME280;23738;50.422;18.758;2024-01-11T11:35:07;99233.86;;;-2.98;80.24
37904;BME280;23738;50.422;18.758;2024-01-11T11:37:39;99227.71;;;-2.97;80.09
37904;BME280;23738;50.422;18.758;2024-01-11T11:40:10;99222.30;;;-2.93;79.82
37904;BME280;23738;50.422;18.758;2024-01-11T11:42:40;99215.27;;;-2.88;80.28
37904;BME280;23738;50.422;18.758;2024-01-11T11:45:11;99210.59;;;-2.80;79.83
37904;BME280;23738;50.422;18.758;2024-01-11T11:47:40;99202.48;;;-2.74;79.57
37904;BME280;23738;50.422;18.758;2024-01-11T11:50:12;99201.30;;;-2.70;78.70
37904;BME280;23738;50.422;18.758;2024-01-11T11:52:43;99198.95;;;-2.68;78.24
37904;BME280;23738;50.422;18.758;2024-01-11T11:55:14;99195.65;;;-2.67;78.25
37904;BME280;23738;50.422;18.758;2024-01-11T11:57:46;99205.09;;;-2.67;78.10
37904;BME280;23738;50.422;18.758;2024-01-11T12:00:18;99197.29;;;-2.66;77.47
37904;BME280;23738;50.422;18.758;2024-01-11T12:02:49;99191.89;;;-2.65;77.33
37904;BME280;23738;50.422;18.758;2024-01-11T12:05:19;99196.83;;;-2.64;77.47
37904;BME280;23738;50.422;18.758;2024-01-11T12:07:49;99198.52;;;-2.64;77.72
37904;BME280;23738;50.422;18.758;2024-01-11T12:10:18;99194.52;;;-2.61;77.57
37904;BME280;23738;50.422;18.758;2024-01-11T12:12:48;99198.80;;;-2.58;78.23
37904;BME280;23738;50.422;18.758;2024-01-11T12:15:18;99195.76;;;-2.54;78.49
37904;BME280;23738;50.422;18.758;2024-01-11T12:17:48;99187.66;;;-2.51;78.15
37904;BME280;23738;50.422;18.758;2024-01-11T12:20:18;99181.63;;;-2.49;78.75
37904;BME280;23738;50.422;18.758;2024-01-11T12:22:49;99179.38;;;-2.46;78.45
37904;BME280;23738;50.422;18.758;2024-01-11T12:25:19;99182.59;;;-2.45;78.15
37904;BME280;23738;50.422;18.758;2024-01-11T12:27:48;99176.83;;;-2.46;77.23
37904;BME280;23738;50.422;18.758;2024-01-11T12:30:19;99179.13;;;-2.47;77.43
37904;BME280;23738;50.422;18.758;2024-01-11T12:32:51;99174.30;;;-2.47;78.18
37904;BME280;23738;50.422;18.758;2024-01-11T12:35:22;99176.82;;;-2.47;78.02
37904;BME280;23738;50.422;18.758;2024-01-11T12:37:55;99178.52;;;-2.48;77.68
37904;BME280;23738;50.422;18.758;2024-01-11T12:40:25;99174.95;;;-2.49;77.82
37904;BME280;23738;50.422;18.758;2024-01-11T12:42:56;99167.29;;;-2.51;78.18
37904;BME280;23738;50.422;18.758;2024-01-11T12:45:28;99160.15;;;-2.50;78.63
37904;BME280;23738;50.422;18.758;2024-01-11T12:48:00;99151.87;;;-2.50;77.91
37904;BME280;23738;50.422;18.758;2024-01-11T12:50:33;99148.02;;;-2.51;77.85
37904;BME280;23738;50.422;18.758;2024-01-11T12:53:13;99142.77;;;-2.50;78.50
37904;BME280;23738;50.422;18.758;2024-01-11T12:55:47;99143.98;;;-2.48;78.33
37904;BME280;23738;50.422;18.758;2024-01-11T12:58:20;99134.05;;;-2.47;78.48
37904;BME280;23738;50.422;18.758;2024-01-11T13:00:50;99130.55;;;-2.46;78.36